Great — TCYV6 — position and weather

sailwx.info

Track history (hours):
 
Tides and Currents Weather Stations Pressure Air Temp Water Temp Dewpoint Dewpoint Depression Visibility Wind Speed Wind Dir Waves Ship Positions

Great

Last reported at 2018-Feb-18 14:26 UTC. Time now 2018-Feb-22 03:31 UTC.
Position N 37°25' E 025°55'.

Length 187 m; draft 8.6 m.

Type: Cargo ship. MMSI: 271042241.

Date/timePositionNaut miles runAvg speedWind from/ knotsBaromVisibWave heightAir tempDewpointWater temp
2018-Feb-18 14:26N 37°25' E 025°55'4 9.7
2018-Feb-18 14:00N 37°28' E 025°52'510.2
2018-Feb-18 13:30N 37°33' E 025°50'510.1
2018-Feb-18 13:00N 37°38' E 025°48'510.4
2018-Feb-18 12:30N 37°43' E 025°45'510.6
2018-Feb-18 12:00N 37°48' E 025°43'  
2018-Feb-14 14:44N 46°16' E 030°54'2 7.0
2018-Feb-14 14:28N 46°18' E 030°55'3 5.8
2018-Feb-14 14:00N 46°21' E 030°56'3 6.2
2018-Feb-14 13:30N 46°21' E 031°00'0 0.1
2018-Feb-14 05:39N 46°21' E 031°01'0 2.0
2018-Feb-14 05:31N 46°21' E 031°01'2 4.7
2018-Feb-14 05:00N 46°22' E 030°58'3 5.6
2018-Feb-14 04:30N 46°25' E 030°56'3 6.9
2018-Feb-14 04:01N 46°28' E 030°55'3 6.7
2018-Feb-14 03:31N 46°31' E 030°56'3 6.5
2018-Feb-14 03:01N 46°33' E 030°60'4 7.1
2018-Feb-14 02:31N 46°34' E 031°04'7 6.8
2018-Feb-14 01:26N 46°35' E 031°15'11 6.3
2018-Feb-13 23:40N 46°35' E 031°31'3 6.8
2018-Feb-13 23:13N 46°35' E 031°36'1 6.8
2018-Feb-13 23:00N 46°35' E 031°38'3 6.9
2018-Feb-13 22:30N 46°36' E 031°43'3 6.9
2018-Feb-13 22:00N 46°36' E 031°48'3 6.8
2018-Feb-13 21:31N 46°37' E 031°52'1 1.7
2018-Feb-13 21:01N 46°38' E 031°53'4 7.3
2018-Feb-13 20:31N 46°41' E 031°56'4 8.3
2018-Feb-13 20:00N 46°45' E 031°54'4 8.2
2018-Feb-13 19:31N 46°49' E 031°54'2 3.0
2018-Feb-13 18:59N 46°50' E 031°56'0 0.0
2018-Feb-13 18:29N 46°50' E 031°56'0 0.0
2018-Feb-13 18:00N 46°50' E 031°56'0 0.1
2018-Feb-13 17:30N 46°50' E 031°56'1 2.4
2018-Feb-13 17:00N 46°51' E 031°57'1 2.2
2018-Feb-13 16:29N 46°51' E 031°59'0 0.0
2018-Feb-13 15:59N 46°51' E 031°59'0 0.0
2018-Feb-13 15:30N 46°51' E 031°59'0 0.0
2018-Feb-13 15:00N 46°51' E 031°59'0 0.0
2018-Feb-13 14:30N 46°51' E 031°59'0 0.0
2018-Feb-13 13:58N 46°51' E 031°59'0 0.0
2018-Feb-13 13:28N 46°51' E 031°59'0 0.0
2018-Feb-13 12:58N 46°51' E 031°59'0 0.0
2018-Feb-13 12:29N 46°51' E 031°59'0 0.0
2018-Feb-13 11:59N 46°51' E 031°59'0 0.0
2018-Feb-13 11:29N 46°51' E 031°59'0 0.0
2018-Feb-13 11:00N 46°51' E 031°59'0 0.0
2018-Feb-13 10:30N 46°51' E 031°59'0 0.0
2018-Feb-13 10:00N 46°51' E 031°59'0 0.0
2018-Feb-13 09:28N 46°51' E 031°59'0 0.0
2018-Feb-13 08:58N 46°51' E 031°59'0 0.0
2018-Feb-13 08:28N 46°51' E 031°59'0 0.0
2018-Feb-13 07:59N 46°51' E 031°59'0 0.0
2018-Feb-13 07:29N 46°51' E 031°59'0 0.0
2018-Feb-13 06:59N 46°51' E 031°59'0 0.0
2018-Feb-13 06:30N 46°51' E 031°59'0 0.0
2018-Feb-13 06:00N 46°51' E 031°59'0 0.0
2018-Feb-13 05:30N 46°51' E 031°59'0 0.0
2018-Feb-13 02:24N 46°51' E 031°59'0 0.0
2018-Feb-13 02:01N 46°51' E 031°59'0 0.0
2018-Feb-13 01:28N 46°51' E 031°59'0 0.0
2018-Feb-12 23:38N 46°51' E 031°59'0 0.0
2018-Feb-12 23:25N 46°51' E 031°59'0 0.0
2018-Feb-12 21:17N 46°51' E 031°59'0 0.0
2018-Feb-12 20:59N 46°51' E 031°59'0 0.0
2018-Feb-12 20:28N 46°51' E 031°59'0 0.0
2018-Feb-12 19:58N 46°51' E 031°59'0 0.0
2018-Feb-12 19:29N 46°51' E 031°59'0 0.0
2018-Feb-12 18:59N 46°51' E 031°59'0 0.0
2018-Feb-12 18:29N 46°51' E 031°59'0 0.0
2018-Feb-12 17:17N 46°51' E 031°59'0 0.0
2018-Feb-12 16:59N 46°51' E 031°59'0 0.0
2018-Feb-12 16:30N 46°51' E 031°59'0 0.0
2018-Feb-12 15:59N 46°51' E 031°59'0 0.0
2018-Feb-12 02:35N 46°51' E 031°59'0 0.0
2018-Feb-12 02:29N 46°51' E 031°59'0 0.0
2018-Feb-12 01:59N 46°51' E 031°59'0 0.0
2018-Feb-12 01:30N 46°51' E 031°59'0 0.0
2018-Feb-12 01:00N 46°51' E 031°59'0 0.0
2018-Feb-12 00:30N 46°51' E 031°59'0 0.0
2018-Feb-11 23:58N 46°51' E 031°59'0 0.0
2018-Feb-11 23:28N 46°51' E 031°59'0 0.0
2018-Feb-11 22:58N 46°51' E 031°59'0 0.0
2018-Feb-11 22:29N 46°51' E 031°59'0 0.0
2018-Feb-11 21:59N 46°51' E 031°59'0 0.0
2018-Feb-11 21:29N 46°51' E 031°59'0 0.0
2018-Feb-11 21:00N 46°51' E 031°59'0 0.0
2018-Feb-11 20:30N 46°51' E 031°59'0 0.0
2018-Feb-11 20:00N 46°51' E 031°59'0 0.0
2018-Feb-11 19:28N 46°51' E 031°59'0 0.0
2018-Feb-11 18:58N 46°51' E 031°59'0 0.0
2018-Feb-11 18:28N 46°51' E 031°59'0 0.0
2018-Feb-11 17:59N 46°51' E 031°59'0 0.0
2018-Feb-11 17:29N 46°51' E 031°59'0 0.0
2018-Feb-11 14:42N 46°51' E 031°59'0 0.1
2018-Feb-11 14:30N 46°51' E 031°59'0 0.0
2018-Feb-11 14:00N 46°51' E 031°59'0 0.0
2018-Feb-11 12:57N 46°51' E 031°59'0 0.0
2018-Feb-11 12:29N 46°51' E 031°59'0 0.0
2018-Feb-11 11:59N 46°51' E 031°59'0 0.0
2018-Feb-11 11:29N 46°51' E 031°59'0 0.0
2018-Feb-11 11:00N 46°51' E 031°59'0 0.0
2018-Feb-11 10:30N 46°51' E 031°59'0 0.0
2018-Feb-11 10:00N 46°51' E 031°59'0 0.0
2018-Feb-11 09:28N 46°51' E 031°59'0 0.0
2018-Feb-11 08:58N 46°51' E 031°59'0 0.0
2018-Feb-11 08:29N 46°51' E 031°59'0 0.0
2018-Feb-11 07:59N 46°51' E 031°59'0 0.0
2018-Feb-11 07:29N 46°51' E 031°59'0 0.0
2018-Feb-11 07:00N 46°51' E 031°59'0 0.0
2018-Feb-11 06:30N 46°51' E 031°59'0 0.0
2018-Feb-11 06:00N 46°51' E 031°59'0 0.0
2018-Feb-11 05:31N 46°51' E 031°59'0 0.0
2018-Feb-11 04:55N 46°51' E 031°59'0 0.0
2018-Feb-11 04:28N 46°51' E 031°59'0 0.1
2018-Feb-11 03:59N 46°51' E 031°59'0 0.1
2018-Feb-11 03:29N 46°51' E 031°59'0 0.0
2018-Feb-11 02:59N 46°51' E 031°59'0 0.0
2018-Feb-11 02:30N 46°51' E 031°59'0 0.0
2018-Feb-11 02:00N 46°51' E 031°59'0 0.0
2018-Feb-11 01:30N 46°51' E 031°59'0 0.0
2018-Feb-11 00:58N 46°51' E 031°59'0 0.0
2018-Feb-11 00:25N 46°51' E 031°59'0 0.0
2018-Feb-10 23:58N 46°51' E 031°59'0 0.0
2018-Feb-10 23:29N 46°51' E 031°59'0 0.0
2018-Feb-10 22:56N 46°51' E 031°59'0 0.0
2018-Feb-10 22:29N 46°51' E 031°59'0 0.0
2018-Feb-10 22:00N 46°51' E 031°59'0 0.0
2018-Feb-10 21:30N 46°51' E 031°59'0 0.0
2018-Feb-10 21:00N 46°51' E 031°59'0 0.0
2018-Feb-10 20:28N 46°51' E 031°59'0 0.0
2018-Feb-10 19:58N 46°51' E 031°59'0 0.0
2018-Feb-10 19:28N 46°51' E 031°59'0 0.0
2018-Feb-10 18:59N 46°51' E 031°59'0 0.0
2018-Feb-10 18:29N 46°51' E 031°59'0 0.0
2018-Feb-10 17:59N 46°51' E 031°59'0 0.0
2018-Feb-10 17:30N 46°51' E 031°59'0 0.0
2018-Feb-10 17:00N 46°51' E 031°59'0 0.0
2018-Feb-10 16:30N 46°51' E 031°59'0 0.0
2018-Feb-10 15:58N 46°51' E 031°59'0 0.0
2018-Feb-10 15:30N 46°51' E 031°59'0 0.3
2018-Feb-10 15:01N 46°51' E 031°59'0 0.4
2018-Feb-10 14:30N 46°51' E 031°59'1 2.4
2018-Feb-10 14:00N 46°51' E 031°57'3 6.3
2018-Feb-10 13:31N 46°49' E 031°54'5 9.1
2018-Feb-10 13:01N 46°44' E 031°55'5 9.8
2018-Feb-10 12:31N 46°39' E 031°56'510.2
2018-Feb-10 11:58N 46°36' E 031°49'510.1
2018-Feb-10 11:28N 46°36' E 031°42'510.2
2018-Feb-10 11:00N 46°35' E 031°35'18 3.0
2018-Feb-10 04:56N 46°35' E 031°08'510.7
2018-Feb-10 04:30N 46°34' E 031°02'4 7.3
2018-Feb-10 04:01N 46°33' E 030°57'4 7.4
2018-Feb-10 03:31N 46°29' E 030°57'510.7
2018-Feb-10 03:00N 46°24' E 030°57'610.5
2018-Feb-10 02:26N 46°18' E 030°58'  
Track history (hours):
 
Tides and Currents Weather Stations Pressure Air Temp Water Temp Dewpoint Dewpoint Depression Visibility Wind Speed Wind Dir Waves Ship Positions

Great

Last reported at 2018-Feb-18 14:26 UTC. Time now 2018-Feb-22 03:31 UTC.
Position N 37°25' E 025°55'.

Length 187 m; draft 8.6 m.

Type: Cargo ship. MMSI: 271042241.

Date/timePositionNaut miles runAvg speedWind from/ knotsBaromVisibWave heightAir tempDewpointWater temp
2018-Feb-18 14:26N 37°25' E 025°55'4 9.7
2018-Feb-18 14:00N 37°28' E 025°52'510.2
2018-Feb-18 13:30N 37°33' E 025°50'510.1
2018-Feb-18 13:00N 37°38' E 025°48'510.4
2018-Feb-18 12:30N 37°43' E 025°45'510.6
2018-Feb-18 12:00N 37°48' E 025°43'  
2018-Feb-14 14:44N 46°16' E 030°54'2 7.0
2018-Feb-14 14:28N 46°18' E 030°55'3 5.8
2018-Feb-14 14:00N 46°21' E 030°56'3 6.2
2018-Feb-14 13:30N 46°21' E 031°00'0 0.1
2018-Feb-14 05:39N 46°21' E 031°01'0 2.0
2018-Feb-14 05:31N 46°21' E 031°01'2 4.7
2018-Feb-14 05:00N 46°22' E 030°58'3 5.6
2018-Feb-14 04:30N 46°25' E 030°56'3 6.9
2018-Feb-14 04:01N 46°28' E 030°55'3 6.7
2018-Feb-14 03:31N 46°31' E 030°56'3 6.5
2018-Feb-14 03:01N 46°33' E 030°60'4 7.1
2018-Feb-14 02:31N 46°34' E 031°04'7 6.8
2018-Feb-14 01:26N 46°35' E 031°15'11 6.3
2018-Feb-13 23:40N 46°35' E 031°31'3 6.8
2018-Feb-13 23:13N 46°35' E 031°36'1 6.8
2018-Feb-13 23:00N 46°35' E 031°38'3 6.9
2018-Feb-13 22:30N 46°36' E 031°43'3 6.9
2018-Feb-13 22:00N 46°36' E 031°48'3 6.8
2018-Feb-13 21:31N 46°37' E 031°52'1 1.7
2018-Feb-13 21:01N 46°38' E 031°53'4 7.3
2018-Feb-13 20:31N 46°41' E 031°56'4 8.3
2018-Feb-13 20:00N 46°45' E 031°54'4 8.2
2018-Feb-13 19:31N 46°49' E 031°54'2 3.0
2018-Feb-13 18:59N 46°50' E 031°56'0 0.0
2018-Feb-13 18:29N 46°50' E 031°56'0 0.0
2018-Feb-13 18:00N 46°50' E 031°56'0 0.1
2018-Feb-13 17:30N 46°50' E 031°56'1 2.4
2018-Feb-13 17:00N 46°51' E 031°57'1 2.2
2018-Feb-13 16:29N 46°51' E 031°59'0 0.0
2018-Feb-13 15:59N 46°51' E 031°59'0 0.0
2018-Feb-13 15:30N 46°51' E 031°59'0 0.0
2018-Feb-13 15:00N 46°51' E 031°59'0 0.0
2018-Feb-13 14:30N 46°51' E 031°59'0 0.0
2018-Feb-13 13:58N 46°51' E 031°59'0 0.0
2018-Feb-13 13:28N 46°51' E 031°59'0 0.0
2018-Feb-13 12:58N 46°51' E 031°59'0 0.0
2018-Feb-13 12:29N 46°51' E 031°59'0 0.0
2018-Feb-13 11:59N 46°51' E 031°59'0 0.0
2018-Feb-13 11:29N 46°51' E 031°59'0 0.0
2018-Feb-13 11:00N 46°51' E 031°59'0 0.0
2018-Feb-13 10:30N 46°51' E 031°59'0 0.0
2018-Feb-13 10:00N 46°51' E 031°59'0 0.0
2018-Feb-13 09:28N 46°51' E 031°59'0 0.0
2018-Feb-13 08:58N 46°51' E 031°59'0 0.0
2018-Feb-13 08:28N 46°51' E 031°59'0 0.0
2018-Feb-13 07:59N 46°51' E 031°59'0 0.0
2018-Feb-13 07:29N 46°51' E 031°59'0 0.0
2018-Feb-13 06:59N 46°51' E 031°59'0 0.0
2018-Feb-13 06:30N 46°51' E 031°59'0 0.0
2018-Feb-13 06:00N 46°51' E 031°59'0 0.0
2018-Feb-13 05:30N 46°51' E 031°59'0 0.0
2018-Feb-13 02:24N 46°51' E 031°59'0 0.0
2018-Feb-13 02:01N 46°51' E 031°59'0 0.0
2018-Feb-13 01:28N 46°51' E 031°59'0 0.0
2018-Feb-12 23:38N 46°51' E 031°59'0 0.0
2018-Feb-12 23:25N 46°51' E 031°59'0 0.0
2018-Feb-12 21:17N 46°51' E 031°59'0 0.0
2018-Feb-12 20:59N 46°51' E 031°59'0 0.0
2018-Feb-12 20:28N 46°51' E 031°59'0 0.0
2018-Feb-12 19:58N 46°51' E 031°59'0 0.0
2018-Feb-12 19:29N 46°51' E 031°59'0 0.0
2018-Feb-12 18:59N 46°51' E 031°59'0 0.0
2018-Feb-12 18:29N 46°51' E 031°59'0 0.0
2018-Feb-12 17:17N 46°51' E 031°59'0 0.0
2018-Feb-12 16:59N 46°51' E 031°59'0 0.0
2018-Feb-12 16:30N 46°51' E 031°59'0 0.0
2018-Feb-12 15:59N 46°51' E 031°59'0 0.0
2018-Feb-12 02:35N 46°51' E 031°59'0 0.0
2018-Feb-12 02:29N 46°51' E 031°59'0 0.0
2018-Feb-12 01:59N 46°51' E 031°59'0 0.0
2018-Feb-12 01:30N 46°51' E 031°59'0 0.0
2018-Feb-12 01:00N 46°51' E 031°59'0 0.0
2018-Feb-12 00:30N 46°51' E 031°59'0 0.0
2018-Feb-11 23:58N 46°51' E 031°59'0 0.0
2018-Feb-11 23:28N 46°51' E 031°59'0 0.0
2018-Feb-11 22:58N 46°51' E 031°59'0 0.0
2018-Feb-11 22:29N 46°51' E 031°59'0 0.0
2018-Feb-11 21:59N 46°51' E 031°59'0 0.0
2018-Feb-11 21:29N 46°51' E 031°59'0 0.0
2018-Feb-11 21:00N 46°51' E 031°59'0 0.0
2018-Feb-11 20:30N 46°51' E 031°59'0 0.0
2018-Feb-11 20:00N 46°51' E 031°59'0 0.0
2018-Feb-11 19:28N 46°51' E 031°59'0 0.0
2018-Feb-11 18:58N 46°51' E 031°59'0 0.0
2018-Feb-11 18:28N 46°51' E 031°59'0 0.0
2018-Feb-11 17:59N 46°51' E 031°59'0 0.0
2018-Feb-11 17:29N 46°51' E 031°59'0 0.0
2018-Feb-11 14:42N 46°51' E 031°59'0 0.1
2018-Feb-11 14:30N 46°51' E 031°59'0 0.0
2018-Feb-11 14:00N 46°51' E 031°59'0 0.0
2018-Feb-11 12:57N 46°51' E 031°59'0 0.0
2018-Feb-11 12:29N 46°51' E 031°59'0 0.0
2018-Feb-11 11:59N 46°51' E 031°59'0 0.0
2018-Feb-11 11:29N 46°51' E 031°59'0 0.0
2018-Feb-11 11:00N 46°51' E 031°59'0 0.0
2018-Feb-11 10:30N 46°51' E 031°59'0 0.0
2018-Feb-11 10:00N 46°51' E 031°59'0 0.0
2018-Feb-11 09:28N 46°51' E 031°59'0 0.0
2018-Feb-11 08:58N 46°51' E 031°59'0 0.0
2018-Feb-11 08:29N 46°51' E 031°59'0 0.0
2018-Feb-11 07:59N 46°51' E 031°59'0 0.0
2018-Feb-11 07:29N 46°51' E 031°59'0 0.0
2018-Feb-11 07:00N 46°51' E 031°59'0 0.0
2018-Feb-11 06:30N 46°51' E 031°59'0 0.0
2018-Feb-11 06:00N 46°51' E 031°59'0 0.0
2018-Feb-11 05:31N 46°51' E 031°59'0 0.0
2018-Feb-11 04:55N 46°51' E 031°59'0 0.0
2018-Feb-11 04:28N 46°51' E 031°59'0 0.1
2018-Feb-11 03:59N 46°51' E 031°59'0 0.1
2018-Feb-11 03:29N 46°51' E 031°59'0 0.0
2018-Feb-11 02:59N 46°51' E 031°59'0 0.0
2018-Feb-11 02:30N 46°51' E 031°59'0 0.0
2018-Feb-11 02:00N 46°51' E 031°59'0 0.0
2018-Feb-11 01:30N 46°51' E 031°59'0 0.0
2018-Feb-11 00:58N 46°51' E 031°59'0 0.0
2018-Feb-11 00:25N 46°51' E 031°59'0 0.0
2018-Feb-10 23:58N 46°51' E 031°59'0 0.0
2018-Feb-10 23:29N 46°51' E 031°59'0 0.0
2018-Feb-10 22:56N 46°51' E 031°59'0 0.0
2018-Feb-10 22:29N 46°51' E 031°59'0 0.0
2018-Feb-10 22:00N 46°51' E 031°59'0 0.0
2018-Feb-10 21:30N 46°51' E 031°59'0 0.0
2018-Feb-10 21:00N 46°51' E 031°59'0 0.0
2018-Feb-10 20:28N 46°51' E 031°59'0 0.0
2018-Feb-10 19:58N 46°51' E 031°59'0 0.0
2018-Feb-10 19:28N 46°51' E 031°59'0 0.0
2018-Feb-10 18:59N 46°51' E 031°59'0 0.0
2018-Feb-10 18:29N 46°51' E 031°59'0 0.0
2018-Feb-10 17:59N 46°51' E 031°59'0 0.0
2018-Feb-10 17:30N 46°51' E 031°59'0 0.0
2018-Feb-10 17:00N 46°51' E 031°59'0 0.0
2018-Feb-10 16:30N 46°51' E 031°59'0 0.0
2018-Feb-10 15:58N 46°51' E 031°59'0 0.0
2018-Feb-10 15:30N 46°51' E 031°59'0 0.3
2018-Feb-10 15:01N 46°51' E 031°59'0 0.4
2018-Feb-10 14:30N 46°51' E 031°59'1 2.4
2018-Feb-10 14:00N 46°51' E 031°57'3 6.3
2018-Feb-10 13:31N 46°49' E 031°54'5 9.1
2018-Feb-10 13:01N 46°44' E 031°55'5 9.8
2018-Feb-10 12:31N 46°39' E 031°56'510.2
2018-Feb-10 11:58N 46°36' E 031°49'510.1
2018-Feb-10 11:28N 46°36' E 031°42'510.2
2018-Feb-10 11:00N 46°35' E 031°35'18 3.0
2018-Feb-10 04:56N 46°35' E 031°08'510.7
2018-Feb-10 04:30N 46°34' E 031°02'4 7.3
2018-Feb-10 04:01N 46°33' E 030°57'4 7.4
2018-Feb-10 03:31N 46°29' E 030°57'510.7
2018-Feb-10 03:00N 46°24' E 030°57'610.5
2018-Feb-10 02:26N 46°18' E 030°58'  

Dump ship's entire track history